createdAt,value
2022-08-17T00:01:41.675Z,43.38
2022-08-17T00:04:22.491Z,31.23
2022-08-17T00:06:53.448Z,33.38
2022-08-17T00:09:22.895Z,31.17
2022-08-17T00:12:41.674Z,32.05
2022-08-17T00:14:43.735Z,29.63
2022-08-17T00:17:12.987Z,30.70
2022-08-17T00:19:42.361Z,34.35
2022-08-17T00:22:33.253Z,30.55
2022-08-17T00:25:00.809Z,30.45
2022-08-17T00:27:33.739Z,32.20
2022-08-17T00:30:03.120Z,32.92
2022-08-17T00:33:15.012Z,34.45
2022-08-17T00:35:29.719Z,27.38
2022-08-17T00:37:58.999Z,26.63
2022-08-17T00:40:44.630Z,28.23
2022-08-17T00:43:22.522Z,31.52
2022-08-17T00:45:51.938Z,26.65
2022-08-17T00:48:27.218Z,27.50
2022-08-17T00:51:06.565Z,26.85
2022-08-17T00:53:42.012Z,27.30
2022-08-17T00:56:18.729Z,26.52
2022-08-17T00:58:53.169Z,27.27
2022-08-17T01:01:23.074Z,30.48
2022-08-17T01:03:57.047Z,27.58
2022-08-17T01:06:30.942Z,30.00
2022-08-17T01:09:02.216Z,29.58
2022-08-17T01:11:33.284Z,34.88
2022-08-17T01:14:04.885Z,31.85
2022-08-17T01:16:34.878Z,33.53
2022-08-17T01:19:12.050Z,27.85
2022-08-17T01:22:00.159Z,34.53
2022-08-17T01:24:31.735Z,28.25
2022-08-17T01:27:10.185Z,27.92
2022-08-17T01:29:45.438Z,34.10
2022-08-17T01:32:15.501Z,29.90
2022-08-17T01:34:50.480Z,32.45
2022-08-17T01:37:28.944Z,31.75
2022-08-17T01:40:05.708Z,32.97
2022-08-17T01:42:43.022Z,34.80
2022-08-17T01:45:18.506Z,33.80
2022-08-17T01:47:48.209Z,34.45
2022-08-17T01:50:23.442Z,32.70
2022-08-17T01:53:01.302Z,36.28
2022-08-17T01:55:39.590Z,36.97
2022-08-17T01:58:09.931Z,37.03
2022-08-17T02:00:59.418Z,37.92
2022-08-17T02:03:32.450Z,33.58
2022-08-17T02:06:02.010Z,39.20
2022-08-17T02:08:39.547Z,31.83
2022-08-17T02:11:23.659Z,31.98
2022-08-17T02:13:57.947Z,31.77
2022-08-17T02:16:37.376Z,35.33
2022-08-17T02:19:11.412Z,29.05
2022-08-17T02:21:44.101Z,33.80
2022-08-17T02:24:58.170Z,32.53
2022-08-17T02:27:10.962Z,28.52
2022-08-17T02:29:40.606Z,32.05
2022-08-17T02:32:28.163Z,30.90
2022-08-17T02:35:00.505Z,29.77
2022-08-17T02:37:31.228Z,29.70
2022-08-17T02:40:00.761Z,25.40
2022-08-17T02:42:34.869Z,29.42
2022-08-17T02:45:06.499Z,30.83
2022-08-17T02:47:36.853Z,28.83
2022-08-17T02:50:09.200Z,30.33
2022-08-17T02:52:43.822Z,30.35
2022-08-17T02:55:34.362Z,26.08
2022-08-17T02:58:06.011Z,29.58
2022-08-17T03:00:38.604Z,29.50
2022-08-17T03:03:09.472Z,28.23
2022-08-17T03:05:41.915Z,32.60
2022-08-17T03:08:13.122Z,36.72
2022-08-17T03:10:43.437Z,30.15
2022-08-17T03:13:15.870Z,35.55
2022-08-17T03:15:47.234Z,36.70
2022-08-17T03:18:25.511Z,34.30
2022-08-17T03:20:59.221Z,38.65
2022-08-17T03:23:30.403Z,37.47
2022-08-17T03:26:00.334Z,36.55
2022-08-17T03:28:31.620Z,35.67
2022-08-17T03:31:00.927Z,38.88
2022-08-17T03:33:30.731Z,36.40
2022-08-17T03:36:00.373Z,36.53
2022-08-17T03:38:29.660Z,37.08
2022-08-17T03:41:09.305Z,36.13
2022-08-17T03:43:40.045Z,35.05
2022-08-17T03:46:35.237Z,36.08
2022-08-17T03:49:23.706Z,34.50
2022-08-17T03:52:10.700Z,33.30
2022-08-17T03:54:58.179Z,36.90
2022-08-17T03:57:28.459Z,43.83
2022-08-17T03:59:59.879Z,36.15
2022-08-17T04:02:32.881Z,38.00
2022-08-17T04:05:02.686Z,33.65
2022-08-17T04:07:33.280Z,33.85
2022-08-17T04:10:02.675Z,35.25
2022-08-17T04:12:47.197Z,33.25
2022-08-17T04:15:19.446Z,35.40
2022-08-17T04:17:49.399Z,31.52
2022-08-17T04:20:22.443Z,33.78
2022-08-17T04:23:02.265Z,32.95
2022-08-17T04:25:33.826Z,29.13
2022-08-17T04:28:04.014Z,31.35
2022-08-17T04:30:40.473Z,31.15
2022-08-17T04:33:14.144Z,35.05
2022-08-17T04:35:47.698Z,30.15
2022-08-17T04:38:20.942Z,30.80
2022-08-17T04:41:08.584Z,30.23
2022-08-17T04:43:40.922Z,29.60
2022-08-17T04:46:15.896Z,29.15
2022-08-17T04:48:50.581Z,34.13
2022-08-17T04:51:23.754Z,30.83
2022-08-17T04:53:56.565Z,30.88
2022-08-17T04:56:27.999Z,41.08
2022-08-17T04:59:01.408Z,29.75
2022-08-17T05:01:37.150Z,32.83
2022-08-17T05:04:32.982Z,38.05
2022-08-17T05:06:58.814Z,33.00
2022-08-17T05:09:28.244Z,31.30
2022-08-17T05:12:01.362Z,34.85
2022-08-17T05:14:32.307Z,39.60
2022-08-17T05:17:07.323Z,28.05
2022-08-17T05:19:41.248Z,29.55
2022-08-17T05:22:10.647Z,30.05
2022-08-17T05:24:43.690Z,32.08
2022-08-17T05:27:23.503Z,32.20
2022-08-17T05:29:52.849Z,33.08
2022-08-17T05:32:39.321Z,33.55
2022-08-17T05:35:10.401Z,28.27
2022-08-17T05:37:39.960Z,31.67
2022-08-17T05:40:10.762Z,32.60
2022-08-17T05:42:40.181Z,27.63
2022-08-17T05:45:11.157Z,30.48
2022-08-17T05:47:42.451Z,31.42
2022-08-17T05:50:25.737Z,32.40
2022-08-17T05:53:07.173Z,29.25
2022-08-17T05:55:46.955Z,28.02
2022-08-17T05:58:26.534Z,29.65
2022-08-17T06:01:09.025Z,33.47
2022-08-17T06:03:50.851Z,29.55
2022-08-17T06:06:34.782Z,29.23
2022-08-17T06:09:26.594Z,33.03
2022-08-17T06:12:14.440Z,27.95
2022-08-17T06:15:04.995Z,31.27
2022-08-17T06:17:35.178Z,30.35
2022-08-17T06:20:11.797Z,30.17
2022-08-17T06:22:47.303Z,32.13
2022-08-17T06:25:20.685Z,30.25
2022-08-17T06:27:55.712Z,44.10
2022-08-17T06:30:29.101Z,26.90
2022-08-17T06:33:25.295Z,28.20
2022-08-17T06:36:09.231Z,27.60
2022-08-17T06:38:53.669Z,27.85
2022-08-17T06:41:36.509Z,26.40
2022-08-17T06:44:42.258Z,26.67
2022-08-17T06:47:28.898Z,26.13
2022-08-17T06:50:11.835Z,21.75
2022-08-17T06:52:55.239Z,24.65
2022-08-17T06:55:34.539Z,24.52
2022-08-17T06:58:16.503Z,26.80
2022-08-17T07:00:49.129Z,26.60
2022-08-17T07:03:30.101Z,29.02
2022-08-17T07:06:05.096Z,25.80
2022-08-17T07:08:56.783Z,29.83
2022-08-17T07:11:33.114Z,31.15
2022-08-17T07:14:31.608Z,30.58
2022-08-17T07:17:07.658Z,34.10
2022-08-17T07:19:41.161Z,35.85
2022-08-17T07:22:27.980Z,37.42
2022-08-17T07:25:01.618Z,36.13
2022-08-17T07:27:37.317Z,37.95
2022-08-17T07:30:11.467Z,41.03
2022-08-17T07:32:45.347Z,42.58
2022-08-17T07:35:21.297Z,45.17
2022-08-17T07:37:54.536Z,45.58
2022-08-17T07:40:35.399Z,49.03
2022-08-17T07:43:24.041Z,46.42
2022-08-17T07:46:32.872Z,43.67
2022-08-17T07:49:23.450Z,45.08
2022-08-17T07:52:24.286Z,44.25
2022-08-17T07:54:51.267Z,42.10
2022-08-17T07:57:37.210Z,42.58
2022-08-17T08:00:32.301Z,41.45
2022-08-17T08:03:17.467Z,40.22
2022-08-17T08:05:57.504Z,43.33
2022-08-17T08:08:33.639Z,45.45
2022-08-17T08:11:08.808Z,47.83
2022-08-17T08:13:43.921Z,48.05
2022-08-17T08:16:29.383Z,50.55
2022-08-17T08:19:01.456Z,52.08
2022-08-17T08:21:44.570Z,50.65
2022-08-17T08:24:49.313Z,46.25
2022-08-17T08:27:32.126Z,40.90
2022-08-17T08:30:10.096Z,44.45
2022-08-17T08:33:04.572Z,42.58
2022-08-17T08:35:41.446Z,41.72
2022-08-17T08:38:25.565Z,41.38
2022-08-17T08:41:19.330Z,39.97
2022-08-17T08:44:03.776Z,44.88
2022-08-17T08:46:44.410Z,42.70
2022-08-17T08:50:05.810Z,45.78
2022-08-17T08:53:01.491Z,43.60
2022-08-17T08:55:45.051Z,43.00
2022-08-17T08:58:32.007Z,45.65
2022-08-17T09:01:22.341Z,41.78
2022-08-17T09:04:24.730Z,43.10
2022-08-17T09:07:12.022Z,43.17
2022-08-17T09:09:59.757Z,49.10
2022-08-17T09:12:37.782Z,40.67
2022-08-17T09:15:15.944Z,50.65
2022-08-17T09:18:14.911Z,50.13
2022-08-17T09:20:56.783Z,50.97
2022-08-17T09:23:34.328Z,48.20
2022-08-17T09:26:22.634Z,50.95
2022-08-17T09:29:00.357Z,51.40
2022-08-17T09:31:47.080Z,51.70
2022-08-17T09:34:33.937Z,51.22
2022-08-17T09:37:20.003Z,58.20
2022-08-17T09:40:00.452Z,52.17
2022-08-17T09:42:38.978Z,53.60
2022-08-17T09:45:29.509Z,53.35
2022-08-17T09:48:08.062Z,47.65
2022-08-17T09:51:04.200Z,57.92
2022-08-17T09:53:38.774Z,56.10
2022-08-17T09:56:33.025Z,62.67
2022-08-17T09:59:38.288Z,56.38
2022-08-17T10:02:41.555Z,57.90
2022-08-17T10:05:18.019Z,57.55
2022-08-17T10:07:56.266Z,69.00
2022-08-17T10:10:37.695Z,55.65
2022-08-17T10:13:27.195Z,63.08
2022-08-17T10:16:07.857Z,63.03
2022-08-17T10:18:53.134Z,70.50
2022-08-17T10:21:42.523Z,67.18
2022-08-17T10:24:36.661Z,69.88
2022-08-17T10:27:14.484Z,70.53
2022-08-17T10:29:51.579Z,70.85
2022-08-17T10:32:32.748Z,73.97
2022-08-17T10:35:34.094Z,73.97
2022-08-17T10:38:31.979Z,56.60
2022-08-17T10:41:17.548Z,73.63
2022-08-17T10:44:37.289Z,66.45
2022-08-17T10:47:05.809Z,70.50
2022-08-17T10:49:36.531Z,65.40
2022-08-17T10:52:50.204Z,76.72
2022-08-17T10:55:21.669Z,72.97
2022-08-17T10:57:54.949Z,79.78
2022-08-17T11:01:05.935Z,79.32
2022-08-17T11:03:35.333Z,73.97
2022-08-17T11:06:19.260Z,79.88
2022-08-17T11:09:29.788Z,81.85
2022-08-17T11:12:21.004Z,81.85
2022-08-17T11:15:23.267Z,76.00
2022-08-17T11:18:11.454Z,78.60
2022-08-17T11:21:21.512Z,76.53
2022-08-17T11:24:16.691Z,77.38
2022-08-17T11:27:02.252Z,73.93
2022-08-17T11:29:38.750Z,94.22
2022-08-17T11:32:28.366Z,83.07
2022-08-17T11:35:23.359Z,76.90
2022-08-17T11:38:15.961Z,77.40
2022-08-17T11:41:14.578Z,90.68
2022-08-17T11:44:14.339Z,80.85
2022-08-17T11:47:29.909Z,77.80
2022-08-17T11:50:54.998Z,75.32
2022-08-17T11:57:22.475Z,68.75
2022-08-17T12:00:01.157Z,78.95
2022-08-17T12:02:48.242Z,80.82
2022-08-17T12:05:35.408Z,84.40
2022-08-17T12:08:19.800Z,76.25
2022-08-17T12:11:05.648Z,55.83
2022-08-17T12:13:44.212Z,68.35
2022-08-17T12:16:17.822Z,80.60
2022-08-17T12:18:53.676Z,52.78
2022-08-17T12:21:46.341Z,50.90
2022-08-17T12:24:55.814Z,49.63
2022-08-17T12:27:59.715Z,55.50
2022-08-17T12:30:25.902Z,54.65
2022-08-17T12:32:55.613Z,55.83
2022-08-17T12:35:33.190Z,57.63
2022-08-17T12:38:31.814Z,60.90
2022-08-17T12:41:25.725Z,59.88
2022-08-17T12:44:02.319Z,56.83
2022-08-17T12:46:48.619Z,69.70
2022-08-17T12:49:28.066Z,58.15
2022-08-17T12:52:14.842Z,61.13
2022-08-17T12:54:53.236Z,70.18
2022-08-17T12:57:26.726Z,50.22
2022-08-17T13:00:00.942Z,50.35
2022-08-17T13:02:47.746Z,54.10
2022-08-17T13:05:25.671Z,54.97
2022-08-17T13:07:56.946Z,67.55
2022-08-17T13:10:33.039Z,55.65
2022-08-17T13:13:06.034Z,45.85
2022-08-17T13:15:44.985Z,61.33
2022-08-17T13:18:42.105Z,66.63
2022-08-17T13:21:26.806Z,38.20
2022-08-17T13:24:03.570Z,33.45
2022-08-17T13:26:38.700Z,30.38
2022-08-17T13:29:10.355Z,28.83
2022-08-17T13:31:52.257Z,35.40
2022-08-17T13:34:44.553Z,28.70
2022-08-17T13:37:34.588Z,35.40
2022-08-17T13:40:30.462Z,31.92
2022-08-17T13:43:03.449Z,30.52
2022-08-17T13:45:38.931Z,32.03
2022-08-17T13:48:14.563Z,33.97
2022-08-17T13:50:47.504Z,33.78
2022-08-17T13:53:27.888Z,32.00
2022-08-17T13:56:02.440Z,34.80
2022-08-17T13:58:36.599Z,33.53
2022-08-17T14:01:31.997Z,34.15
2022-08-17T14:04:06.339Z,35.00
2022-08-17T14:06:51.963Z,35.92
2022-08-17T14:09:26.874Z,40.38
2022-08-17T14:11:58.250Z,37.38
2022-08-17T14:14:31.784Z,38.75
2022-08-17T14:17:01.333Z,38.38
2022-08-17T14:19:30.725Z,42.25
2022-08-17T14:22:01.681Z,38.78
2022-08-17T14:24:33.836Z,40.63
2022-08-17T14:27:05.685Z,39.30
2022-08-17T14:29:37.206Z,45.78
2022-08-17T14:32:18.260Z,44.97
2022-08-17T14:34:49.710Z,47.13
2022-08-17T14:37:19.748Z,45.42
2022-08-17T14:39:49.628Z,44.40
2022-08-17T14:42:18.929Z,48.67
2022-08-17T14:44:52.266Z,54.20
2022-08-17T14:47:24.938Z,54.08
2022-08-17T14:49:56.057Z,45.92
2022-08-17T14:52:25.340Z,61.90
2022-08-17T14:54:57.590Z,42.10
2022-08-17T14:57:34.266Z,47.20
2022-08-17T15:00:08.313Z,46.22
2022-08-17T15:02:48.240Z,57.97
2022-08-17T15:05:20.532Z,56.92
2022-08-17T15:07:50.108Z,44.25
2022-08-17T15:10:20.094Z,38.08
2022-08-17T15:12:51.422Z,38.08
2022-08-17T15:15:24.967Z,31.48
2022-08-17T15:17:54.339Z,36.15
2022-08-17T15:20:27.735Z,46.47
2022-08-17T15:22:59.482Z,30.35
2022-08-17T15:25:34.850Z,35.25
2022-08-17T15:28:04.502Z,30.02
2022-08-17T15:30:37.146Z,35.50
2022-08-17T15:33:06.749Z,35.70
2022-08-17T15:35:39.082Z,39.67
2022-08-17T15:40:45.724Z,36.25
2022-08-17T15:43:27.289Z,43.08
2022-08-17T15:46:10.772Z,48.80
2022-08-17T15:51:16.773Z,49.35
2022-08-17T15:53:48.155Z,49.70
2022-08-17T15:56:18.211Z,52.33
2022-08-17T15:58:50.044Z,49.90
2022-08-17T16:03:01.512Z,51.17
2022-08-17T16:04:26.765Z,49.72
2022-08-17T16:07:01.036Z,72.03
2022-08-17T16:09:30.287Z,52.33
2022-08-17T16:11:59.721Z,53.20
2022-08-17T16:14:33.845Z,52.38
2022-08-17T16:17:40.042Z,49.72
2022-08-17T16:19:56.976Z,39.70
2022-08-17T16:22:34.714Z,39.83
2022-08-17T16:25:06.921Z,39.35
2022-08-17T16:27:36.384Z,40.45
2022-08-17T16:30:08.044Z,42.17
2022-08-17T16:32:38.876Z,44.75
2022-08-17T16:35:12.429Z,50.15
2022-08-17T16:37:45.626Z,51.92
2022-08-17T16:40:16.913Z,49.25
2022-08-17T16:42:49.370Z,66.07
2022-08-17T16:45:24.357Z,62.53
2022-08-17T16:47:59.216Z,61.97
2022-08-17T16:50:28.679Z,66.88
2022-08-17T16:53:06.649Z,63.83
2022-08-17T16:55:36.893Z,93.60
2022-08-17T16:58:08.905Z,64.90
2022-08-17T17:00:38.799Z,76.95
2022-08-17T17:03:19.239Z,91.18
2022-08-17T17:06:08.706Z,83.57
2022-08-17T17:08:44.887Z,97.50
2022-08-17T17:11:19.475Z,84.32
2022-08-17T17:13:57.979Z,79.10
2022-08-17T17:16:38.302Z,92.60
2022-08-17T17:19:18.047Z,92.97
2022-08-17T17:22:15.377Z,92.07
2022-08-17T17:25:02.573Z,88.68
2022-08-17T17:27:41.217Z,96.55
2022-08-17T17:30:25.857Z,96.78
2022-08-17T17:33:00.817Z,85.05
2022-08-17T17:35:36.959Z,86.97
2022-08-17T17:38:13.187Z,94.03
2022-08-17T17:40:45.890Z,97.28
2022-08-17T17:43:38.179Z,92.60
2022-08-17T17:48:57.830Z,91.03
2022-08-17T17:52:09.525Z,77.43
2022-08-17T17:55:04.692Z,88.05
2022-08-17T17:57:55.986Z,96.28
2022-08-17T18:00:31.119Z,82.95
2022-08-17T18:03:25.726Z,83.38
2022-08-17T18:06:25.246Z,91.10
2022-08-17T18:09:19.332Z,81.07
2022-08-17T18:12:23.863Z,86.72
2022-08-17T18:15:21.914Z,83.05
2022-08-17T18:18:37.649Z,93.22
2022-08-17T18:21:16.924Z,90.45
2022-08-17T18:24:00.752Z,89.50
2022-08-17T18:26:44.934Z,97.95
2022-08-17T18:29:35.953Z,87.22
2022-08-17T18:32:31.590Z,91.33
2022-08-17T18:35:18.455Z,93.05
2022-08-17T18:37:51.412Z,94.38
2022-08-17T18:40:37.629Z,90.07
2022-08-17T18:43:15.000Z,90.90
2022-08-17T18:45:49.289Z,98.43
2022-08-17T18:48:30.440Z,98.03
2022-08-17T18:51:39.872Z,86.35
2022-08-17T18:54:20.313Z,91.97
2022-08-17T18:56:58.957Z,96.57
2022-08-17T18:59:39.059Z,91.15
2022-08-17T19:02:39.036Z,108.60
2022-08-17T19:05:29.006Z,118.00
2022-08-17T19:08:20.237Z,97.70
2022-08-17T19:10:54.351Z,87.00
2022-08-17T19:13:32.726Z,96.18
2022-08-17T19:16:14.069Z,102.55
2022-08-17T19:18:52.116Z,85.43
2022-08-17T19:21:26.860Z,94.97
2022-08-17T19:24:06.197Z,93.00
2022-08-17T19:26:54.009Z,89.15
2022-08-17T19:29:38.303Z,94.07
2022-08-17T19:32:10.563Z,87.82
2022-08-17T19:34:44.678Z,89.75
2022-08-17T19:37:26.508Z,95.00
2022-08-17T19:40:24.475Z,91.37
2022-08-17T19:43:16.151Z,84.15
2022-08-17T19:46:02.397Z,88.20
2022-08-17T19:48:48.418Z,89.88
2022-08-17T19:51:28.262Z,94.03
2022-08-17T19:54:06.914Z,81.22
2022-08-17T19:56:48.682Z,90.20
2022-08-17T19:59:27.863Z,96.43
2022-08-17T20:02:24.753Z,88.40
2022-08-17T20:04:58.018Z,85.07
2022-08-17T20:07:38.127Z,87.30
2022-08-17T20:10:12.220Z,89.88
2022-08-17T20:12:44.723Z,94.35
2022-08-17T20:15:25.718Z,84.55
2022-08-17T20:18:02.514Z,104.82
2022-08-17T20:20:46.734Z,101.82
2022-08-17T20:23:37.500Z,95.13
2022-08-17T20:26:19.597Z,94.50
2022-08-17T20:30:01.110Z,96.95
2022-08-17T20:32:33.060Z,85.05
2022-08-17T20:35:24.552Z,93.57
2022-08-17T20:37:59.346Z,83.78
2022-08-17T20:40:33.998Z,88.53
2022-08-17T20:43:46.229Z,87.18
2022-08-17T20:46:53.155Z,97.00
2022-08-17T20:49:33.091Z,89.60
2022-08-17T20:52:08.973Z,91.18
2022-08-17T20:54:51.884Z,87.50
2022-08-17T20:57:48.973Z,93.60
2022-08-17T21:00:45.780Z,92.63
2022-08-17T21:03:57.839Z,83.75
2022-08-17T21:06:27.509Z,82.45
2022-08-17T21:09:20.791Z,96.25
2022-08-17T21:12:05.430Z,93.05
2022-08-17T21:14:56.584Z,97.95
2022-08-17T21:17:44.058Z,88.93
2022-08-17T21:20:33.199Z,92.72
2022-08-17T21:23:33.818Z,91.78
2022-08-17T21:26:30.749Z,87.70
2022-08-17T21:29:30.905Z,94.28
2022-08-17T21:32:24.148Z,85.00
2022-08-17T21:35:28.823Z,90.68
2022-08-17T21:38:05.231Z,85.80
2022-08-17T21:40:36.304Z,89.80
2022-08-17T21:43:26.899Z,95.93
2022-08-17T21:46:05.483Z,91.43
2022-08-17T21:48:45.403Z,98.13
2022-08-17T21:51:23.967Z,93.60
2022-08-17T21:53:56.839Z,96.50
2022-08-17T21:56:30.941Z,105.75
2022-08-17T21:59:06.271Z,97.00
2022-08-17T22:01:37.534Z,92.47
2022-08-17T22:04:20.228Z,100.18
2022-08-17T22:06:57.269Z,85.65
2022-08-17T22:09:31.603Z,86.47
2022-08-17T22:12:07.432Z,75.90
2022-08-17T22:14:51.422Z,85.40
2022-08-17T22:17:26.447Z,77.38
2022-08-17T22:19:59.919Z,84.18
2022-08-17T22:22:56.079Z,72.03
2022-08-17T22:25:26.930Z,79.35
2022-08-17T22:28:00.327Z,63.75
2022-08-17T22:30:36.571Z,81.53
2022-08-17T22:33:36.318Z,86.35
2022-08-17T22:36:29.034Z,80.28
2022-08-17T22:39:02.218Z,83.50
2022-08-17T22:41:54.082Z,77.18
2022-08-17T22:44:29.613Z,76.85
2022-08-17T22:47:11.274Z,89.63
2022-08-17T22:49:53.557Z,77.85
2022-08-17T22:52:34.966Z,72.82
2022-08-17T22:55:32.393Z,76.68
2022-08-17T22:58:20.341Z,75.65
2022-08-17T23:00:51.149Z,78.10
2022-08-17T23:03:25.532Z,72.95
2022-08-17T23:06:06.667Z,75.55
2022-08-17T23:08:43.941Z,70.57
2022-08-17T23:11:14.352Z,72.13
2022-08-17T23:13:44.499Z,75.32
2022-08-17T23:16:14.967Z,80.75
2022-08-17T23:18:48.114Z,72.38
2022-08-17T23:21:26.698Z,71.43
2022-08-17T23:23:59.256Z,73.60
2022-08-17T23:26:30.074Z,78.53
2022-08-17T23:29:02.406Z,83.35
2022-08-17T23:31:34.735Z,81.10
2022-08-17T23:34:09.941Z,71.03
2022-08-17T23:36:39.865Z,66.95
2022-08-17T23:39:09.358Z,73.22
2022-08-17T23:41:41.040Z,85.90
2022-08-17T23:44:10.321Z,82.55
2022-08-17T23:46:39.526Z,85.13
2022-08-17T23:49:10.315Z,79.30
2022-08-17T23:51:42.586Z,77.80
2022-08-17T23:54:19.469Z,80.90
2022-08-17T23:56:51.230Z,75.72
2022-08-17T23:59:22.949Z,80.47
